Time;durP1;ratioP1;P1;durP2;ratioP2;P2;SDS_P1;SDS_P2;PMS_P1;PMS_P2;Temp;Humidity;BMP_temperature;BMP_pressure;BME280_temperature;BME280_humidity;BME280_pressure;Samples;Min_cycle;Max_cycle;Signal;HPM_P1;HPM_P2
2023/07/06 00:01:11;;;;;;;7.95;4.20;;;13.10;99.90;;;15.48;100.00;100683.03;5016678;28;20064;-84
2023/07/06 00:03:38;;;;;;;7.32;4.13;;;13.10;99.90;;;15.47;100.00;100681.38;5018681;28;20509;-86
2023/07/06 00:06:08;;;;;;;7.40;3.97;;;13.00;99.90;;;15.43;100.00;100680.22;5029436;28;20072;-83
2023/07/06 00:08:34;;;;;;;6.55;4.10;;;13.00;99.90;;;15.34;100.00;100677.84;5023034;28;20045;-85
2023/07/06 00:11:00;;;;;;;6.32;3.95;;;13.00;99.90;;;15.37;100.00;100682.03;5029654;28;20066;-86
2023/07/06 00:13:26;;;;;;;8.40;4.20;;;12.90;99.90;;;15.31;100.00;100689.34;5019781;28;20041;-84
2023/07/06 00:15:52;;;;;;;6.47;4.50;;;12.80;99.90;;;15.22;100.00;100685.34;5029280;28;20029;-84
2023/07/06 00:18:22;;;;;;;6.70;4.22;;;12.80;99.90;;;15.26;100.00;100681.03;5049504;28;20441;-85
2023/07/06 00:20:49;;;;;;;6.75;4.18;;;12.70;99.90;;;15.15;100.00;100690.16;5027423;28;20482;-84
2023/07/06 00:23:15;;;;;;;5.82;4.10;;;12.70;99.90;;;15.15;100.00;100685.50;5026897;28;20038;-84
2023/07/06 00:25:41;;;;;;;6.85;4.10;;;12.70;99.90;;;15.20;100.00;100685.56;5024881;28;20034;-84
2023/07/06 00:28:09;;;;;;;7.55;4.03;;;12.80;99.90;;;15.32;100.00;100684.69;5030959;28;20470;-83
2023/07/06 00:33:16;;;;;;;5.38;3.83;;;12.90;99.90;;;15.42;100.00;100681.31;5026307;28;19953;-83
2023/07/06 00:35:42;;;;;;;6.80;3.70;;;13.00;99.90;;;15.56;100.00;100682.63;5027268;28;20041;-83
2023/07/06 00:38:13;;;;;;;6.82;4.10;;;13.00;99.90;;;15.51;100.00;100694.34;5018433;28;20034;-81
2023/07/06 00:40:43;;;;;;;5.82;3.40;;;13.10;99.90;;;15.63;100.00;100691.53;5025404;28;20045;-82
2023/07/06 00:43:17;;;;;;;7.63;3.65;;;13.20;99.90;;;15.57;100.00;100687.03;5036998;28;20238;-83
2023/07/06 00:45:45;;;;;;;6.15;3.45;;;13.20;99.90;;;15.66;100.00;100687.47;5041843;28;20069;-83
2023/07/06 00:48:35;;;;;;;5.70;3.60;;;13.30;99.90;;;15.74;100.00;100686.22;5042703;28;20045;-83
2023/07/06 00:51:07;;;;;;;5.68;3.90;;;13.20;99.90;;;15.69;100.00;100695.22;5037713;28;20413;-83
2023/07/06 00:53:48;;;;;;;5.93;3.40;;;13.30;99.90;;;15.78;100.00;100701.13;5043058;28;20105;-85
2023/07/06 00:56:23;;;;;;;6.78;3.45;;;13.30;99.90;;;15.85;100.00;100709.22;5025741;28;20040;-83
2023/07/06 00:58:52;;;;;;;5.97;3.53;;;13.30;99.90;;;15.86;100.00;100708.13;5021233;28;20125;-84
2023/07/06 01:01:22;;;;;;;5.60;3.60;;;13.30;99.90;;;15.91;100.00;100700.84;5027292;28;20038;-84
2023/07/06 01:03:54;;;;;;;5.55;3.67;;;13.40;99.90;;;15.88;100.00;100704.06;5019405;28;20041;-87
2023/07/06 01:06:29;;;;;;;7.53;3.50;;;13.40;99.90;;;15.99;100.00;100709.75;5022144;28;20045;-84
2023/07/06 01:08:57;;;;;;;7.47;3.72;;;13.50;99.90;;;16.06;100.00;100704.88;5025293;28;20026;-83
2023/07/06 01:11:24;;;;;;;7.95;4.15;;;13.50;99.90;;;16.01;100.00;100711.13;5040073;28;20160;-84
2023/07/06 01:13:52;;;;;;;6.47;3.80;;;13.50;99.90;;;15.92;100.00;100705.25;5024320;28;20038;-84
2023/07/06 01:16:37;;;;;;;5.40;3.75;;;13.50;99.90;;;15.88;100.00;100704.06;5025729;28;20330;-83
2023/07/06 01:19:44;;;;;;;9.55;3.70;;;13.50;99.90;;;16.04;100.00;100707.88;5029958;28;20037;-85
2023/07/06 01:22:43;;;;;;;6.20;3.63;;;13.60;99.90;;;16.07;100.00;100704.66;5021531;28;20025;-83
2023/07/06 01:25:59;;;;;;;7.40;3.83;;;13.50;99.90;;;16.06;100.00;100700.22;5032318;28;20034;-83
2023/07/06 01:29:08;;;;;;;6.85;4.00;;;13.50;99.90;;;16.02;100.00;100709.25;5034344;28;20056;-84
2023/07/06 01:31:50;;;;;;;5.60;4.05;;;13.50;99.90;;;16.00;100.00;100701.22;5032694;28;20064;-82
2023/07/06 01:34:24;;;;;;;7.97;4.78;;;13.60;99.90;;;16.06;100.00;100705.75;5021833;28;20060;-84
2023/07/06 01:37:02;;;;;;;6.63;4.25;;;13.60;99.90;;;16.03;100.00;100708.16;5027283;28;20033;-84
2023/07/06 01:39:28;;;;;;;6.45;4.38;;;13.60;99.90;;;16.02;100.00;100704.56;5056323;28;20049;-84
2023/07/06 01:42:29;;;;;;;7.30;4.28;;;13.60;99.90;;;16.24;100.00;100707.38;5020094;28;20045;-84
2023/07/06 01:45:02;;;;;;;7.75;4.53;;;13.60;99.90;;;16.19;100.00;100699.03;5025301;28;20124;-85
2023/07/06 01:47:32;;;;;;;6.80;4.57;;;13.60;99.90;;;16.15;100.00;100695.09;5032391;28;20045;-83
2023/07/06 01:50:01;;;;;;;7.18;5.13;;;13.60;99.90;;;16.00;100.00;100705.91;5018705;28;20038;-84
2023/07/06 01:52:53;;;;;;;7.18;4.63;;;13.50;99.90;;;15.94;100.00;100710.47;5020503;28;20501;-83
2023/07/06 01:55:43;;;;;;;6.57;4.50;;;13.60;99.90;;;15.88;100.00;100714.22;5050400;28;20050;-84
2023/07/06 01:58:24;;;;;;;6.00;4.43;;;13.60;99.90;;;15.92;100.00;100713.50;5033188;28;20029;-82
2023/07/06 02:00:58;;;;;;;7.07;4.65;;;13.60;99.90;;;16.03;100.00;100717.22;5026253;28;20029;-85
2023/07/06 02:03:25;;;;;;;8.43;5.05;;;13.60;99.90;;;15.92;100.00;100705.25;5021391;28;20056;-84
2023/07/06 02:05:52;;;;;;;7.28;4.82;;;13.50;99.90;;;15.88;100.00;100715.06;5039875;28;20494;-83
2023/07/06 02:08:19;;;;;;;11.13;5.43;;;13.60;99.90;;;16.12;100.00;100720.38;5030431;28;20579;-84
2023/07/06 02:10:46;;;;;;;7.03;5.05;;;13.60;99.90;;;16.02;100.00;100725.75;5028046;28;20295;-84
2023/07/06 02:13:12;;;;;;;8.85;5.47;;;13.60;99.90;;;16.08;100.00;100731.09;5037119;28;20477;-84
2023/07/06 02:15:40;;;;;;;8.43;5.25;;;13.60;99.90;;;16.08;100.00;100732.97;5031673;28;20030;-84
2023/07/06 02:18:07;;;;;;;7.30;5.43;;;13.60;99.90;;;16.23;100.00;100732.38;5021134;28;20042;-83
2023/07/06 02:20:34;;;;;;;9.00;5.50;;;13.60;99.90;;;16.01;100.00;100732.34;5031594;28;20295;-86
2023/07/06 02:23:07;;;;;;;7.90;5.43;;;13.60;99.90;;;16.06;100.00;100732.41;5027079;28;20085;-85
2023/07/06 02:25:34;;;;;;;8.52;5.35;;;13.60;99.90;;;16.00;100.00;100731.50;5034091;28;20040;-84
2023/07/06 02:27:59;;;;;;;7.35;5.82;;;13.60;99.90;;;16.04;100.00;100740.09;5032430;28;20034;-83
2023/07/06 02:30:25;;;;;;;9.57;5.55;;;13.60;99.90;;;15.97;100.00;100754.00;5021365;28;20408;-85
2023/07/06 02:32:51;;;;;;;8.05;5.60;;;13.60;99.90;;;16.06;100.00;100740.66;5019601;28;20046;-83
2023/07/06 02:35:17;;;;;;;9.35;5.55;;;13.60;99.90;;;15.99;100.00;100731.75;5026289;28;20037;-86
2023/07/06 02:37:43;;;;;;;7.70;5.43;;;13.60;99.90;;;16.08;100.00;100735.72;5023701;28;20094;-84
2023/07/06 02:40:11;;;;;;;10.18;5.75;;;13.60;99.90;;;15.98;100.00;100730.09;5033375;28;20674;-84
2023/07/06 02:42:41;;;;;;;9.48;5.55;;;13.60;99.90;;;16.01;100.00;100729.59;5020773;28;20393;-86
2023/07/06 02:45:08;;;;;;;8.38;4.97;;;13.50;99.90;;;16.05;100.00;100728.00;5026683;28;20100;-84
2023/07/06 02:47:33;;;;;;;8.93;5.18;;;13.50;99.90;;;16.01;100.00;100732.34;5035683;28;20413;-85
2023/07/06 02:49:59;;;;;;;7.35;5.78;;;13.50;99.90;;;15.89;100.00;100733.22;5022489;28;20038;-84
2023/07/06 02:52:25;;;;;;;8.73;5.32;;;13.50;99.90;;;15.67;100.00;100728.47;5023247;28;20054;-83
2023/07/06 02:54:53;;;;;;;8.82;5.38;;;13.40;99.90;;;15.73;100.00;100723.88;5029048;28;20135;-84
2023/07/06 02:57:19;;;;;;;9.80;5.90;;;13.40;99.90;;;15.73;100.00;100723.88;5030162;28;20048;-84
2023/07/06 02:59:45;;;;;;;8.02;6.05;;;13.30;99.90;;;15.74;100.00;100730.22;5033815;28;20039;-84
2023/07/06 03:02:12;;;;;;;8.00;6.00;;;13.30;99.90;;;15.56;100.00;100737.63;5026824;28;20033;-85
2023/07/06 03:04:38;;;;;;;8.25;5.85;;;13.30;99.90;;;15.58;100.00;100737.38;5021692;28;20030;-84
2023/07/06 03:07:05;;;;;;;8.52;6.80;;;13.20;99.90;;;15.55;100.00;100744.19;5038927;28;20089;-84
2023/07/06 03:09:32;;;;;;;10.40;6.50;;;13.10;99.90;;;15.52;100.00;100737.28;5034117;28;20088;-83
2023/07/06 03:11:58;;;;;;;9.93;6.07;;;13.00;99.90;;;15.43;100.00;100735.19;5050535;28;20038;-83
2023/07/06 03:14:25;;;;;;;8.77;6.15;;;13.00;99.90;;;15.32;100.00;100742.41;5081067;28;20045;-83
2023/07/06 03:16:53;;;;;;;8.63;6.80;;;12.80;99.90;;;15.17;100.00;100742.97;5032463;28;20049;-83
2023/07/06 03:19:20;;;;;;;;;;;12.80;99.90;;;15.34;100.00;100743.81;5034958;28;20029;-83
2023/07/06 03:21:46;;;;;;;8.70;5.70;;;12.70;99.90;;;15.14;100.00;100737.97;5024613;28;19917;-84
2023/07/06 03:24:12;;;;;;;10.68;6.25;;;12.60;99.90;;;15.16;100.00;100744.88;5018740;28;20100;-84
2023/07/06 03:26:40;;;;;;;7.60;5.75;;;12.60;99.90;;;15.13;100.00;100750.84;5013858;28;20042;-87
2023/07/06 03:29:09;;;;;;;7.88;5.78;;;12.50;99.90;;;15.05;100.00;100754.81;5013735;28;20041;-83
2023/07/06 03:31:35;;;;;;;11.82;6.15;;;12.50;99.90;;;14.98;100.00;100756.03;5019047;28;20076;-85
2023/07/06 03:34:03;;;;;;;8.07;5.68;;;12.50;99.90;;;14.94;100.00;100750.22;5018581;28;20044;-87
2023/07/06 03:36:31;;;;;;;;;;;12.50;99.90;;;14.96;100.00;100754.34;5021254;28;20513;-84
2023/07/06 03:38:57;;;;;;;11.13;6.03;;;12.50;99.90;;;14.77;100.00;100733.66;5013539;28;20268;-83
2023/07/06 03:41:22;;;;;;;10.90;6.55;;;12.50;99.90;;;14.95;100.00;100751.88;5013983;28;20041;-85
2023/07/06 03:43:48;;;;;;;9.80;7.00;;;12.40;99.90;;;14.91;100.00;100756.19;5014393;28;20029;-88
2023/07/06 03:46:14;;;;;;;11.57;7.45;;;12.40;99.90;;;14.91;100.00;100767.19;5016593;28;20473;-81
2023/07/06 03:48:44;;;;;;;10.52;7.65;;;12.50;99.90;;;14.98;100.00;100765.13;5025737;28;20037;-79
2023/07/06 03:51:11;;;;;;;14.38;8.30;;;12.50;99.90;;;14.98;100.00;100769.75;5012551;28;20042;-78
2023/07/06 03:53:37;;;;;;;12.75;8.23;;;12.50;99.90;;;15.02;100.00;100768.22;5016005;28;20109;-81
2023/07/06 03:56:03;;;;;;;12.07;9.15;;;12.50;99.90;;;15.10;100.00;100767.84;5018358;28;20367;-83
2023/07/06 03:58:29;;;;;;;11.68;8.65;;;12.50;99.90;;;15.14;100.00;100766.25;5016579;28;20041;-84
2023/07/06 04:00:58;;;;;;;10.85;8.40;;;12.60;99.90;;;15.18;100.00;100777.59;5022113;28;20034;-82
2023/07/06 04:03:27;;;;;;;12.55;9.10;;;12.60;99.90;;;15.28;100.00;100771.47;5016095;28;20065;-80
2023/07/06 04:05:54;;;;;;;14.02;9.65;;;12.70;99.90;;;15.30;100.00;100780.31;5020623;28;20513;-78
2023/07/06 04:08:22;;;;;;;13.23;9.52;;;12.70;99.90;;;15.48;100.00;100782.00;5018862;28;20395;-77
2023/07/06 04:10:49;;;;;;;10.52;8.57;;;12.80;99.90;;;15.38;100.00;100771.66;5016333;28;20123;-79
2023/07/06 04:13:15;;;;;;;13.98;9.40;;;12.80;99.90;;;15.40;100.00;100780.50;5015630;28;20042;-80
2023/07/06 04:15:46;;;;;;;17.10;10.45;;;12.90;99.90;;;15.28;100.00;100766.78;5016754;28;20044;-81
2023/07/06 04:18:15;;;;;;;14.18;10.95;;;12.90;99.90;;;15.47;100.00;100783.09;5018588;28;20177;-80
2023/07/06 04:20:41;;;;;;;14.07;10.82;;;13.00;99.90;;;15.60;100.00;100782.78;5018763;28;20053;-78
2023/07/06 04:23:09;;;;;;;13.52;10.93;;;13.10;99.90;;;15.75;100.00;100792.41;5050728;28;20111;-80
2023/07/06 04:25:35;;;;;;;;;;;13.10;99.90;;;15.91;100.00;100796.28;5016098;28;20041;-78
2023/07/06 04:28:05;;;;;;;16.52;12.05;;;13.20;99.90;;;15.95;100.00;100801.03;5015961;28;19921;-79
2023/07/06 04:30:34;;;;;;;15.30;11.90;;;13.30;99.90;;;15.95;100.00;100794.69;5015951;28;20034;-78
2023/07/06 04:33:01;;;;;;;16.13;11.75;;;13.40;99.90;;;15.95;100.00;100798.28;5016283;28;20034;-80
2023/07/06 04:35:27;;;;;;;17.80;12.20;;;13.50;99.90;;;16.10;100.00;100802.34;5015888;28;20088;-79
2023/07/06 04:37:53;;;;;;;15.35;11.98;;;13.50;99.90;;;16.27;100.00;100801.53;5019246;28;20038;-79
2023/07/06 04:40:21;;;;;;;16.33;11.95;;;13.60;99.90;;;16.29;100.00;100808.44;5017647;28;20053;-80
2023/07/06 04:42:50;;;;;;;16.17;12.53;;;13.70;99.90;;;16.28;100.00;100811.47;5039390;28;20191;-81
2023/07/06 04:45:18;;;;;;;14.82;11.50;;;13.70;99.90;;;16.35;100.00;100809.34;5019564;28;20124;-81
2023/07/06 04:47:45;;;;;;;16.35;11.48;;;13.70;99.90;;;16.22;100.00;100808.63;5014959;28;20049;-80
2023/07/06 04:50:22;;;;;;;16.17;11.70;;;13.70;99.90;;;16.35;100.00;100810.22;5015230;28;20046;-80
2023/07/06 04:52:55;;;;;;;16.38;11.30;;;13.80;99.90;;;16.47;100.00;100796.34;5015420;28;20117;-80
2023/07/06 04:55:24;;;;;;;17.10;11.52;;;13.90;99.90;;;16.46;100.00;100808.44;5020023;28;20041;-81
2023/07/06 04:57:54;;;;;;;16.23;11.43;;;14.00;99.90;;;16.59;100.00;100815.50;5020654;28;20038;-80
2023/07/06 05:00:28;;;;;;;15.75;11.43;;;14.10;99.90;;;16.82;100.00;100814.44;5022672;28;20488;-82
2023/07/06 05:03:00;;;;;;;14.02;10.80;;;14.20;99.90;;;16.94;100.00;100814.34;5020038;28;20038;-82
2023/07/06 05:05:32;;;;;;;14.55;10.30;;;14.30;99.90;;;16.94;100.00;100813.47;5025292;28;20057;-84
2023/07/06 05:07:58;;;;;;;11.98;10.05;;;14.40;99.90;;;17.20;100.00;100817.44;5015834;28;20042;-83
2023/07/06 05:10:26;;;;;;;15.00;10.38;;;14.50;99.90;;;17.23;100.00;100813.31;5031932;28;20104;-84
2023/07/06 05:12:52;;;;;;;;;;;14.60;99.90;;;17.31;100.00;100818.41;5025559;28;20037;-82
2023/07/06 05:15:19;;;;;;;11.73;9.07;;;14.70;99.90;;;17.36;100.00;100818.44;5016617;28;19921;-86
2023/07/06 05:17:45;;;;;;;11.60;9.40;;;14.80;99.90;;;17.18;100.00;100811.34;5025445;28;20409;-83
2023/07/06 05:20:14;;;;;;;14.38;8.75;;;14.90;99.90;;;17.45;100.00;100820.72;5016601;28;20038;-84
2023/07/06 05:22:47;;;;;;;11.13;9.05;;;15.00;99.90;;;17.58;100.00;100811.22;5017395;28;20038;-79
2023/07/06 05:25:13;;;;;;;13.63;8.55;;;15.00;99.90;;;17.71;100.00;100821.84;5018004;28;20514;-82
2023/07/06 05:27:39;;;;;;;14.98;7.97;;;15.10;99.90;;;17.70;100.00;100820.19;5023291;28;20080;-80
2023/07/06 05:30:06;;;;;;;11.65;8.18;;;15.20;99.90;;;17.85;100.00;100822.25;5022344;28;20065;-81
2023/07/06 05:32:32;;;;;;;12.32;8.02;;;15.30;99.90;;;17.85;100.00;100819.50;5023099;28;20084;-79
2023/07/06 05:34:58;;;;;;;12.48;7.75;;;15.40;99.90;;;17.87;100.00;100830.25;5029527;28;20029;-80
2023/07/06 05:37:24;;;;;;;13.60;6.95;;;15.40;99.90;;;18.39;100.00;100826.03;5032713;28;20052;-80
2023/07/06 05:39:50;;;;;;;10.02;7.57;;;15.50;99.90;;;17.96;100.00;100826.75;5034619;28;20041;-81
2023/07/06 05:42:17;;;;;;;10.82;6.95;;;15.60;99.90;;;18.19;100.00;100830.31;5032779;28;20128;-79
2023/07/06 05:44:44;;;;;;;12.48;6.60;;;15.70;99.90;;;18.51;100.00;100823.91;5015318;28;20049;-78
2023/07/06 05:47:11;;;;;;;12.00;6.07;;;15.80;99.90;;;18.42;100.00;100833.78;5022534;28;20038;-83
2023/07/06 05:49:37;;;;;;;9.93;5.45;;;16.00;99.90;;;18.56;100.00;100823.13;5026277;28;20036;-78
2023/07/06 05:52:04;;;;;;;8.27;5.43;;;16.10;99.90;;;18.50;100.00;100825.00;5026914;28;20033;-77
2023/07/06 05:54:30;;;;;;;11.13;5.22;;;16.10;99.90;;;18.36;100.00;100837.63;5020386;28;20041;-78
2023/07/06 05:56:57;;;;;;;10.25;4.80;;;16.20;99.90;;;18.62;100.00;100843.31;5014117;28;20068;-79
2023/07/06 05:59:24;;;;;;;8.83;4.93;;;16.20;99.90;;;18.69;100.00;100841.16;5016008;28;20026;-77
2023/07/06 06:01:51;;;;;;;9.40;4.53;;;16.30;99.90;;;18.81;100.00;100838.19;5014232;28;20291;-77
2023/07/06 06:04:17;;;;;;;10.35;4.80;;;16.50;99.90;;;18.77;100.00;100842.59;5017333;28;20072;-78
2023/07/06 06:06:54;;;;;;;8.73;4.40;;;16.50;99.90;;;18.50;100.00;100838.00;5018023;28;20041;-78
2023/07/06 06:09:22;;;;;;;8.40;4.10;;;16.50;99.90;;;18.81;100.00;100852.81;5019067;28;20039;-82
2023/07/06 06:11:48;;;;;;;7.28;4.25;;;16.50;99.90;;;18.78;100.00;100844.25;5014259;28;20034;-83
2023/07/06 06:14:15;;;;;;;8.05;4.10;;;16.60;99.90;;;19.02;100.00;100850.19;5014656;28;20045;-80
2023/07/06 06:16:41;;;;;;;7.35;3.78;;;16.70;99.90;;;19.24;100.00;100851.97;5018072;28;20350;-82
2023/07/06 06:19:08;;;;;;;7.50;3.42;;;16.90;99.90;;;18.94;100.00;100853.47;5013056;28;20095;-82
2023/07/06 06:21:34;;;;;;;6.32;3.47;;;16.90;99.90;;;19.06;100.00;100856.84;5012117;28;20034;-80
2023/07/06 06:24:02;;;;;;;10.88;3.90;;;16.90;99.90;;;19.50;100.00;100863.13;5012995;28;20042;-82
2023/07/06 06:26:29;;;;;;;7.93;3.60;;;17.20;99.90;;;19.55;100.00;100871.44;5013895;28;20556;-82
2023/07/06 06:28:57;;;;;;;8.55;3.47;;;17.30;99.90;;;19.31;100.00;100880.19;5023373;28;20575;-80
2023/07/06 06:31:24;;;;;;;7.40;3.67;;;17.30;99.90;;;19.19;100.00;100879.59;5016102;28;20063;-82
2023/07/06 06:33:50;;;;;;;8.65;3.75;;;17.10;99.90;;;19.36;100.00;100877.47;5019201;28;20481;-80
2023/07/06 06:36:18;;;;;;;10.88;3.72;;;17.20;99.90;;;19.68;100.00;100881.16;5019395;28;20026;-79
2023/07/06 06:38:44;;;;;;;5.70;3.58;;;17.40;99.90;;;19.33;100.00;100885.47;5021882;28;20121;-81
2023/07/06 06:41:11;;;;;;;7.32;3.55;;;17.40;99.90;;;19.48;100.00;100890.22;5024045;28;20034;-80
2023/07/06 06:43:44;;;;;;;7.50;3.70;;;17.30;99.90;;;19.78;100.00;100888.66;5019344;28;20477;-82
2023/07/06 06:46:12;;;;;;;8.05;3.92;;;17.50;99.90;;;19.62;100.00;100887.78;5016396;28;20041;-81
2023/07/06 06:48:39;;;;;;;8.88;4.22;;;17.70;99.90;;;19.81;100.00;100899.16;5020133;28;20393;-82
2023/07/06 06:51:07;;;;;;;6.07;3.72;;;17.80;99.90;;;19.92;95.91;100881.53;5019651;28;20026;-82
2023/07/06 06:53:34;;;;;;;6.15;3.88;;;17.90;99.90;;;20.23;93.19;100895.41;5023085;28;20037;-81
2023/07/06 06:56:02;;;;;;;6.30;3.70;;;18.00;99.90;;;20.50;90.13;100880.44;5015643;28;20474;-87
2023/07/06 06:58:28;;;;;;;10.32;3.85;;;18.10;99.90;;;20.49;89.01;100887.09;5023172;28;20128;-82
2023/07/06 07:00:58;;;;;;;5.35;3.13;;;18.30;99.90;;;20.79;86.66;100884.53;5011821;28;20117;-81
2023/07/06 07:03:27;;;;;;;7.70;3.88;;;18.40;99.90;;;20.88;85.70;100877.38;5015503;28;20025;-83
2023/07/06 07:06:11;;;;;;;7.30;3.50;;;18.50;99.90;;;21.11;85.43;100883.41;5016322;28;20561;-81
2023/07/06 07:08:49;;;;;;;4.18;3.10;;;18.70;99.90;;;20.53;84.60;100892.88;5011350;28;20096;-81
2023/07/06 07:11:19;;;;;;;6.00;3.53;;;18.80;99.90;;;20.69;82.83;100885.41;5011600;28;20470;-81
2023/07/06 07:13:50;;;;;;;6.45;3.35;;;18.70;99.90;;;20.68;81.50;100879.03;5015130;28;20394;-81
2023/07/06 07:16:17;;;;;;;9.68;3.70;;;18.60;99.90;;;20.62;79.97;100890.41;5014971;28;20030;-82
2023/07/06 07:18:43;;;;;;;6.60;3.17;;;18.60;99.90;;;20.54;79.64;100883.47;5017995;28;20091;-82
2023/07/06 07:21:12;;;;;;;8.30;3.13;;;18.70;99.90;;;21.05;75.48;100881.75;5017578;28;20029;-82
2023/07/06 07:23:49;;;;;;;6.03;3.08;;;18.90;99.90;;;21.63;72.17;100884.00;5013095;28;20041;-83
2023/07/06 07:26:21;;;;;;;4.57;2.70;;;19.30;99.90;;;21.68;68.37;100892.31;5012838;28;20126;-83
2023/07/06 07:28:50;;;;;;;7.65;3.05;;;19.50;99.90;;;22.04;66.90;100887.69;5024401;28;20056;-81
2023/07/06 07:31:18;;;;;;;5.75;2.53;;;19.70;99.90;;;22.17;63.64;100878.66;5020036;28;20029;-82
2023/07/06 07:33:46;;;;;;;5.97;2.40;;;20.00;99.90;;;21.67;62.07;100873.19;5020256;28;20041;-83
2023/07/06 07:36:17;;;;;;;5.63;2.35;;;19.80;99.90;;;22.39;61.80;100885.72;5015897;28;20100;-82
2023/07/06 07:38:44;;;;;;;6.40;2.70;;;20.00;99.90;;;22.37;59.27;100863.78;5022067;28;20041;-79
2023/07/06 07:41:10;;;;;;;5.30;2.60;;;20.30;99.90;;;22.55;60.19;100892.84;5015078;28;20469;-78
2023/07/06 07:43:42;;;;;;;4.53;2.40;;;20.40;99.90;;;22.76;56.26;100878.72;5025883;28;20045;-77
2023/07/06 07:46:10;;;;;;;7.95;2.50;;;20.70;98.30;;;22.86;56.81;100885.31;5027662;28;20044;-79
2023/07/06 07:48:44;;;;;;;5.32;2.20;;;20.70;98.70;;;22.76;59.75;100886.25;5022787;28;20045;-80
2023/07/06 07:51:13;;;;;;;6.25;1.95;;;20.60;99.90;;;22.43;57.50;100875.69;5023792;28;21923;-82
2023/07/06 07:53:40;;;;;;;3.28;1.73;;;20.60;98.20;;;22.55;56.06;100873.38;5026111;28;20592;-81
2023/07/06 07:56:07;;;;;;;7.47;2.20;;;20.40;98.40;;;22.14;58.19;100890.38;5012330;28;20037;-80
2023/07/06 07:58:36;;;;;;;3.75;1.75;;;20.20;99.00;;;22.46;55.93;100879.84;5012756;28;20038;-81
2023/07/06 08:01:06;;;;;;;6.32;2.10;;;20.20;98.10;;;22.33;55.37;100876.59;5018153;28;20046;-81
2023/07/06 08:03:33;;;;;;;7.57;2.38;;;20.20;98.00;;;22.03;58.62;100894.34;5016208;28;20038;-82
2023/07/06 08:06:03;;;;;;;7.22;2.00;;;20.10;99.10;;;22.31;56.98;100884.41;5011997;28;20134;-79
2023/07/06 08:08:32;;;;;;;6.05;1.95;;;20.20;98.50;;;22.05;56.27;100883.78;5012886;28;20141;-79
2023/07/06 08:11:09;;;;;;;4.70;1.95;;;20.00;97.90;;;21.89;56.62;100886.66;5011913;28;20045;-78
2023/07/06 08:13:36;;;;;;;3.97;1.90;;;19.80;98.30;;;22.37;58.79;100902.69;5022624;28;20037;-81
2023/07/06 08:16:03;;;;;;;7.40;2.10;;;19.90;99.90;;;22.09;59.66;100907.06;5018317;28;20037;-80
2023/07/06 08:18:31;;;;;;;4.72;1.92;;;19.90;99.90;;;21.86;58.78;100900.25;5017852;28;20128;-80
2023/07/06 08:20:58;;;;;;;4.97;2.00;;;19.90;99.60;;;22.24;55.90;100898.59;5023126;28;20037;-80
2023/07/06 08:23:27;;;;;;;6.30;2.60;;;20.00;98.50;;;22.44;56.00;100901.53;5018472;28;20477;-81
2023/07/06 08:25:54;;;;;;;5.97;2.30;;;20.10;98.50;;;22.49;58.16;100918.19;5012181;28;20064;-80
2023/07/06 08:28:31;;;;;;;6.60;2.35;;;20.20;99.40;;;22.30;60.25;100915.25;5019137;28;20049;-81
2023/07/06 08:31:02;;;;;;;5.18;2.10;;;20.10;99.90;;;22.70;60.34;100918.84;5012240;28;20042;-79
2023/07/06 08:33:32;;;;;;;4.45;2.30;;;20.20;99.90;;;22.60;59.07;100916.16;5015537;28;20512;-79
2023/07/06 08:35:59;;;;;;;3.60;2.20;;;20.30;99.90;;;22.48;59.27;100920.13;5016951;28;20034;-81
2023/07/06 08:38:24;;;;;;;7.23;2.43;;;20.40;99.60;;;23.15;59.19;100927.00;5015932;28;20089;-79
2023/07/06 08:40:52;;;;;;;5.55;2.25;;;20.70;99.90;;;22.69;56.48;100917.16;5018597;28;20974;-81
2023/07/06 08:43:24;;;;;;;4.55;2.28;;;20.70;98.20;;;22.46;57.92;100913.19;5028856;28;20037;-82
2023/07/06 08:45:58;;;;;;;4.75;2.17;;;20.40;98.90;;;22.37;57.45;100926.88;5021524;28;20045;-79
2023/07/06 08:48:27;;;;;;;5.28;2.40;;;20.60;97.90;;;22.64;56.12;100914.44;5016114;28;20103;-78
2023/07/06 08:50:59;;;;;;;7.15;2.10;;;20.70;97.80;;;23.07;57.03;100922.88;5015370;28;20030;-82
2023/07/06 08:53:32;;;;;;;5.45;2.30;;;20.80;99.00;;;23.35;56.31;100919.56;5015716;28;20057;-79
2023/07/06 08:56:01;;;;;;;6.75;2.17;;;21.20;98.40;;;23.62;55.49;100907.81;5020890;28;20034;-79
2023/07/06 08:58:29;;;;;;;8.15;2.38;;;21.40;97.80;;;23.47;53.99;100913.56;5022454;28;20042;-78
2023/07/06 09:01:06;;;;;;;5.22;1.92;;;21.30;96.70;;;23.40;49.29;100892.50;5019422;28;20103;-81
2023/07/06 09:03:41;;;;;;;5.68;1.85;;;21.20;93.70;;;23.45;48.96;100904.69;5027002;28;20045;-82
2023/07/06 09:06:16;;;;;;;4.55;2.20;;;21.10;93.60;;;23.35;52.29;100928.75;5018993;28;20495;-82
2023/07/06 09:08:41;;;;;;;9.20;2.50;;;21.00;95.60;;;23.65;52.38;100925.88;5026620;28;20042;-82
2023/07/06 09:11:08;;;;;;;4.80;2.03;;;21.30;96.20;;;24.02;50.91;100915.06;5020697;28;20038;-81
2023/07/06 09:13:50;;;;;;;4.07;1.90;;;21.50;95.00;;;23.66;47.09;100891.31;5019074;28;20397;-81
2023/07/06 09:16:19;;;;;;;5.15;1.70;;;21.70;91.80;;;23.78;47.96;100907.59;5014883;28;20034;-79
2023/07/06 09:18:52;;;;;;;4.95;1.90;;;21.90;92.40;;;24.14;47.52;100901.53;5019382;28;20049;-80
2023/07/06 09:21:25;;;;;;;4.45;1.70;;;21.90;92.00;;;24.90;46.07;100886.56;5015362;28;20045;-82
2023/07/06 09:23:53;;;;;;;4.35;1.80;;;22.40;91.70;;;24.02;44.61;100895.56;5022206;28;20401;-81
2023/07/06 09:26:29;;;;;;;5.10;1.77;;;22.30;88.90;;;23.72;44.99;100892.09;5025709;28;20033;-83
2023/07/06 09:29:25;;;;;;;4.35;2.00;;;22.10;88.60;;;24.36;43.99;100895.31;5016370;28;20034;-84
2023/07/06 09:32:19;;;;;;;7.05;1.95;;;22.20;88.40;;;24.78;42.92;100889.84;5019219;28;20121;-83
2023/07/06 09:34:51;;;;;;;2.65;1.48;;;22.40;88.60;;;25.22;42.32;100881.22;5020539;28;20048;-80
2023/07/06 09:37:20;;;;;;;3.83;1.63;;;22.80;87.00;;;23.87;43.77;100903.00;5018373;28;20040;-77
2023/07/06 09:40:06;;;;;;;4.10;1.70;;;22.60;85.10;;;25.59;42.04;100875.69;5019529;28;20494;-80
2023/07/06 09:42:34;;;;;;;4.05;1.65;;;23.10;86.20;;;25.58;42.03;100894.41;5014280;28;20038;-81
2023/07/06 09:45:01;;;;;;;3.38;1.50;;;23.40;85.80;;;25.04;41.28;100883.78;5018345;28;20042;-83
2023/07/06 09:47:30;;;;;;;4.75;1.77;;;23.30;82.30;;;24.97;42.78;100897.31;5016973;28;20498;-82
2023/07/06 09:50:14;;;;;;;3.70;1.65;;;23.00;84.60;;;24.86;41.85;100891.09;5025740;28;20120;-81
2023/07/06 09:52:41;;;;;;;3.28;1.42;;;22.90;83.50;;;25.33;43.52;100909.72;5013788;28;20367;-85
2023/07/06 09:55:29;;;;;;;4.60;1.70;;;22.90;86.90;;;24.46;43.53;100902.66;5034141;28;20042;-82
2023/07/06 09:57:57;;;;;;;3.78;1.67;;;22.70;83.60;;;26.37;41.27;100885.91;5027719;28;20045;-81
2023/07/06 10:00:33;;;;;;;5.75;1.40;;;;;;;26.44;39.46;100875.06;5012936;28;20120;-81
2023/07/06 10:03:31;;;;;;;6.63;1.80;;;;;;;26.54;38.17;100860.00;5019701;28;20053;-81
2023/07/06 10:06:20;;;;;;;5.40;1.63;;;23.80;84.20;;;26.03;41.20;100892.84;5017935;28;20045;-81
2023/07/06 10:09:19;;;;;;;3.95;1.70;;;;;;;26.14;39.68;100874.69;5014136;28;20080;-83
2023/07/06 10:11:58;;;;;;;4.90;1.63;;;;;;;26.12;40.07;100885.34;5018302;28;20414;-82
2023/07/06 10:14:40;;;;;;;4.68;1.17;;;;;;;26.87;37.34;100847.69;5014536;28;20526;-82
2023/07/06 10:17:38;;;;;;;2.45;1.13;;;;;;;27.70;35.62;100832.06;5017905;28;20045;-83
2023/07/06 10:20:21;;;;;;;5.20;1.33;;;;;;;27.50;34.39;100825.94;5014443;28;20092;-81
2023/07/06 10:23:06;;;;;;;4.47;1.50;;;;;;;26.39;34.98;100822.94;5013371;28;20034;-79
2023/07/06 10:25:46;;;;;;;3.72;1.33;;;;;;;26.83;34.74;100837.13;5015168;28;20049;-81
2023/07/06 10:28:25;;;;;;;2.85;1.23;;;;;;;26.64;36.21;100861.69;5015248;28;20042;-83